sensor_id;sensor_type;location;lat;lon;timestamp;P1;durP1;ratioP1;P2;durP2;ratioP2
44850;SDS011;30583;48.714;9.386;2022-08-14T00:01:07;6.03;;;2.30;;
44850;SDS011;30583;48.714;9.386;2022-08-14T00:03:33;3.00;;;2.20;;
44850;SDS011;30583;48.714;9.386;2022-08-14T00:05:59;5.80;;;2.92;;
44850;SDS011;30583;48.714;9.386;2022-08-14T00:08:26;5.00;;;2.33;;
44850;SDS011;30583;48.714;9.386;2022-08-14T00:10:52;6.50;;;2.45;;
44850;SDS011;30583;48.714;9.386;2022-08-14T00:13:19;5.68;;;2.72;;
44850;SDS011;30583;48.714;9.386;2022-08-14T00:15:48;5.20;;;2.65;;
44850;SDS011;30583;48.714;9.386;2022-08-14T00:18:17;3.95;;;2.83;;
44850;SDS011;30583;48.714;9.386;2022-08-14T00:20:44;4.88;;;2.50;;
44850;SDS011;30583;48.714;9.386;2022-08-14T00:23:11;3.35;;;2.25;;
44850;SDS011;30583;48.714;9.386;2022-08-14T00:25:38;5.82;;;2.67;;
44850;SDS011;30583;48.714;9.386;2022-08-14T00:28:04;3.55;;;2.00;;
44850;SDS011;30583;48.714;9.386;2022-08-14T00:30:33;5.95;;;2.80;;
44850;SDS011;30583;48.714;9.386;2022-08-14T00:32:58;3.33;;;2.35;;
44850;SDS011;30583;48.714;9.386;2022-08-14T00:35:24;5.68;;;2.80;;
44850;SDS011;30583;48.714;9.386;2022-08-14T00:37:50;5.05;;;2.28;;
44850;SDS011;30583;48.714;9.386;2022-08-14T00:40:17;4.80;;;2.50;;
44850;SDS011;30583;48.714;9.386;2022-08-14T00:42:43;3.25;;;2.15;;
44850;SDS011;30583;48.714;9.386;2022-08-14T00:45:11;3.25;;;2.35;;
44850;SDS011;30583;48.714;9.386;2022-08-14T00:47:39;4.93;;;2.53;;
44850;SDS011;30583;48.714;9.386;2022-08-14T00:50:06;7.45;;;2.75;;
44850;SDS011;30583;48.714;9.386;2022-08-14T00:52:33;4.68;;;2.17;;
44850;SDS011;30583;48.714;9.386;2022-08-14T00:54:59;3.47;;;2.33;;
44850;SDS011;30583;48.714;9.386;2022-08-14T00:57:29;3.40;;;2.40;;
44850;SDS011;30583;48.714;9.386;2022-08-14T00:59:56;4.63;;;2.50;;
44850;SDS011;30583;48.714;9.386;2022-08-14T01:02:23;4.30;;;2.40;;
44850;SDS011;30583;48.714;9.386;2022-08-14T01:04:50;3.83;;;2.47;;
44850;SDS011;30583;48.714;9.386;2022-08-14T01:07:17;4.25;;;3.17;;
44850;SDS011;30583;48.714;9.386;2022-08-14T01:09:50;3.50;;;2.63;;
44850;SDS011;30583;48.714;9.386;2022-08-14T01:12:21;4.38;;;2.53;;
44850;SDS011;30583;48.714;9.386;2022-08-14T01:14:47;3.33;;;2.53;;
44850;SDS011;30583;48.714;9.386;2022-08-14T01:17:19;4.68;;;2.50;;
44850;SDS011;30583;48.714;9.386;2022-08-14T01:19:45;5.20;;;2.50;;
44850;SDS011;30583;48.714;9.386;2022-08-14T01:22:29;5.07;;;2.55;;
44850;SDS011;30583;48.714;9.386;2022-08-14T01:24:55;4.13;;;2.60;;
44850;SDS011;30583;48.714;9.386;2022-08-14T01:27:21;5.00;;;2.72;;
44850;SDS011;30583;48.714;9.386;2022-08-14T01:29:51;4.13;;;2.60;;
44850;SDS011;30583;48.714;9.386;2022-08-14T01:32:19;4.57;;;2.45;;
44850;SDS011;30583;48.714;9.386;2022-08-14T01:34:49;3.22;;;2.50;;
44850;SDS011;30583;48.714;9.386;2022-08-14T01:37:17;4.30;;;2.80;;
44850;SDS011;30583;48.714;9.386;2022-08-14T01:39:48;5.43;;;2.50;;
44850;SDS011;30583;48.714;9.386;2022-08-14T01:42:15;4.18;;;2.50;;
44850;SDS011;30583;48.714;9.386;2022-08-14T01:44:41;2.85;;;2.20;;
44850;SDS011;30583;48.714;9.386;2022-08-14T01:47:08;5.68;;;2.65;;
44850;SDS011;30583;48.714;9.386;2022-08-14T01:49:37;4.70;;;2.75;;
44850;SDS011;30583;48.714;9.386;2022-08-14T01:52:04;5.40;;;2.60;;
44850;SDS011;30583;48.714;9.386;2022-08-14T01:54:30;4.32;;;2.42;;
44850;SDS011;30583;48.714;9.386;2022-08-14T01:56:56;5.30;;;2.25;;
44850;SDS011;30583;48.714;9.386;2022-08-14T01:59:23;4.47;;;2.50;;
44850;SDS011;30583;48.714;9.386;2022-08-14T02:01:59;6.70;;;2.60;;
44850;SDS011;30583;48.714;9.386;2022-08-14T02:04:31;4.15;;;2.60;;
44850;SDS011;30583;48.714;9.386;2022-08-14T02:06:58;3.53;;;2.60;;
44850;SDS011;30583;48.714;9.386;2022-08-14T02:09:26;5.78;;;3.05;;
44850;SDS011;30583;48.714;9.386;2022-08-14T02:11:54;5.28;;;2.90;;
44850;SDS011;30583;48.714;9.386;2022-08-14T02:14:20;3.88;;;2.95;;
44850;SDS011;30583;48.714;9.386;2022-08-14T02:16:48;6.05;;;3.05;;
44850;SDS011;30583;48.714;9.386;2022-08-14T02:19:19;2.92;;;2.50;;
44850;SDS011;30583;48.714;9.386;2022-08-14T02:21:47;5.93;;;2.95;;
44850;SDS011;30583;48.714;9.386;2022-08-14T02:24:15;6.38;;;3.13;;
44850;SDS011;30583;48.714;9.386;2022-08-14T02:26:43;5.05;;;2.80;;
44850;SDS011;30583;48.714;9.386;2022-08-14T02:29:14;4.88;;;3.05;;
44850;SDS011;30583;48.714;9.386;2022-08-14T02:31:43;3.85;;;2.55;;
44850;SDS011;30583;48.714;9.386;2022-08-14T02:34:14;13.13;;;2.97;;
44850;SDS011;30583;48.714;9.386;2022-08-14T02:36:42;4.55;;;2.95;;
44850;SDS011;30583;48.714;9.386;2022-08-14T02:39:10;8.52;;;2.97;;
44850;SDS011;30583;48.714;9.386;2022-08-14T02:41:37;8.02;;;2.90;;
44850;SDS011;30583;48.714;9.386;2022-08-14T02:44:03;6.03;;;3.15;;
44850;SDS011;30583;48.714;9.386;2022-08-14T02:46:31;3.33;;;2.78;;
44850;SDS011;30583;48.714;9.386;2022-08-14T02:48:56;3.50;;;2.50;;
44850;SDS011;30583;48.714;9.386;2022-08-14T02:51:23;4.25;;;2.13;;
44850;SDS011;30583;48.714;9.386;2022-08-14T02:53:49;6.10;;;2.80;;
44850;SDS011;30583;48.714;9.386;2022-08-14T02:56:16;6.25;;;2.80;;
44850;SDS011;30583;48.714;9.386;2022-08-14T02:58:44;3.92;;;2.65;;
44850;SDS011;30583;48.714;9.386;2022-08-14T03:01:12;3.92;;;2.75;;
44850;SDS011;30583;48.714;9.386;2022-08-14T03:03:39;4.10;;;3.22;;
44850;SDS011;30583;48.714;9.386;2022-08-14T03:06:06;4.18;;;3.00;;
44850;SDS011;30583;48.714;9.386;2022-08-14T03:08:33;4.50;;;2.83;;
44850;SDS011;30583;48.714;9.386;2022-08-14T03:11:01;4.00;;;2.88;;
44850;SDS011;30583;48.714;9.386;2022-08-14T03:13:30;4.75;;;2.95;;
44850;SDS011;30583;48.714;9.386;2022-08-14T03:16:11;3.55;;;2.85;;
44850;SDS011;30583;48.714;9.386;2022-08-14T03:18:39;6.63;;;3.30;;
44850;SDS011;30583;48.714;9.386;2022-08-14T03:21:10;5.25;;;3.78;;
44850;SDS011;30583;48.714;9.386;2022-08-14T03:23:45;4.10;;;3.00;;
44850;SDS011;30583;48.714;9.386;2022-08-14T03:26:13;6.40;;;3.42;;
44850;SDS011;30583;48.714;9.386;2022-08-14T03:28:41;4.65;;;3.28;;
44850;SDS011;30583;48.714;9.386;2022-08-14T03:31:09;5.45;;;2.80;;
44850;SDS011;30583;48.714;9.386;2022-08-14T03:33:36;7.65;;;3.72;;
44850;SDS011;30583;48.714;9.386;2022-08-14T03:36:09;4.60;;;2.78;;
44850;SDS011;30583;48.714;9.386;2022-08-14T03:38:38;5.63;;;2.60;;
44850;SDS011;30583;48.714;9.386;2022-08-14T03:41:10;3.55;;;2.50;;
44850;SDS011;30583;48.714;9.386;2022-08-14T03:43:42;6.15;;;3.10;;
44850;SDS011;30583;48.714;9.386;2022-08-14T03:46:09;5.18;;;3.40;;
44850;SDS011;30583;48.714;9.386;2022-08-14T03:48:37;5.97;;;3.65;;
44850;SDS011;30583;48.714;9.386;2022-08-14T03:51:04;8.48;;;3.60;;
44850;SDS011;30583;48.714;9.386;2022-08-14T03:53:32;5.40;;;3.47;;
44850;SDS011;30583;48.714;9.386;2022-08-14T03:56:01;5.07;;;3.58;;
44850;SDS011;30583;48.714;9.386;2022-08-14T03:58:31;5.55;;;3.22;;
44850;SDS011;30583;48.714;9.386;2022-08-14T04:00:58;5.13;;;3.70;;
44850;SDS011;30583;48.714;9.386;2022-08-14T04:03:24;4.93;;;3.50;;
44850;SDS011;30583;48.714;9.386;2022-08-14T04:05:51;7.00;;;3.72;;
44850;SDS011;30583;48.714;9.386;2022-08-14T04:08:17;6.32;;;3.35;;
44850;SDS011;30583;48.714;9.386;2022-08-14T04:10:44;6.20;;;3.38;;
44850;SDS011;30583;48.714;9.386;2022-08-14T04:13:11;5.57;;;3.83;;
44850;SDS011;30583;48.714;9.386;2022-08-14T04:15:41;4.40;;;3.25;;
44850;SDS011;30583;48.714;9.386;2022-08-14T04:18:08;5.32;;;3.75;;
44850;SDS011;30583;48.714;9.386;2022-08-14T04:20:34;5.22;;;3.70;;
44850;SDS011;30583;48.714;9.386;2022-08-14T04:23:00;4.85;;;3.13;;
44850;SDS011;30583;48.714;9.386;2022-08-14T04:25:25;5.85;;;3.92;;
44850;SDS011;30583;48.714;9.386;2022-08-14T04:27:51;4.95;;;3.58;;
44850;SDS011;30583;48.714;9.386;2022-08-14T04:30:18;7.13;;;3.45;;
44850;SDS011;30583;48.714;9.386;2022-08-14T04:32:44;7.28;;;3.45;;
44850;SDS011;30583;48.714;9.386;2022-08-14T04:35:10;4.68;;;3.90;;
44850;SDS011;30583;48.714;9.386;2022-08-14T04:37:35;6.95;;;3.83;;
44850;SDS011;30583;48.714;9.386;2022-08-14T04:40:20;6.22;;;3.60;;
44850;SDS011;30583;48.714;9.386;2022-08-14T04:43:04;8.13;;;3.45;;
44850;SDS011;30583;48.714;9.386;2022-08-14T04:45:48;4.03;;;3.33;;
44850;SDS011;30583;48.714;9.386;2022-08-14T04:48:14;4.50;;;3.50;;
44850;SDS011;30583;48.714;9.386;2022-08-14T04:50:44;4.88;;;3.53;;
44850;SDS011;30583;48.714;9.386;2022-08-14T04:53:14;4.88;;;3.65;;
44850;SDS011;30583;48.714;9.386;2022-08-14T04:55:42;4.55;;;3.65;;
44850;SDS011;30583;48.714;9.386;2022-08-14T04:58:12;4.55;;;3.40;;
44850;SDS011;30583;48.714;9.386;2022-08-14T05:00:39;6.07;;;3.58;;
44850;SDS011;30583;48.714;9.386;2022-08-14T05:03:06;5.45;;;3.70;;
44850;SDS011;30583;48.714;9.386;2022-08-14T05:05:32;4.97;;;3.55;;
44850;SDS011;30583;48.714;9.386;2022-08-14T05:08:05;4.90;;;3.55;;
44850;SDS011;30583;48.714;9.386;2022-08-14T05:10:47;5.25;;;4.07;;
44850;SDS011;30583;48.714;9.386;2022-08-14T05:13:16;4.55;;;3.72;;
44850;SDS011;30583;48.714;9.386;2022-08-14T05:15:50;6.90;;;3.63;;
44850;SDS011;30583;48.714;9.386;2022-08-14T05:18:18;5.93;;;3.50;;
44850;SDS011;30583;48.714;9.386;2022-08-14T05:20:49;5.93;;;3.92;;
44850;SDS011;30583;48.714;9.386;2022-08-14T05:23:17;4.53;;;3.58;;
44850;SDS011;30583;48.714;9.386;2022-08-14T05:25:44;5.82;;;4.28;;
44850;SDS011;30583;48.714;9.386;2022-08-14T05:28:19;5.13;;;3.90;;
44850;SDS011;30583;48.714;9.386;2022-08-14T05:30:50;7.57;;;4.15;;
44850;SDS011;30583;48.714;9.386;2022-08-14T05:33:19;6.82;;;3.50;;
44850;SDS011;30583;48.714;9.386;2022-08-14T05:35:47;4.05;;;3.63;;
44850;SDS011;30583;48.714;9.386;2022-08-14T05:38:14;4.43;;;3.42;;
44850;SDS011;30583;48.714;9.386;2022-08-14T05:40:41;9.20;;;5.55;;
44850;SDS011;30583;48.714;9.386;2022-08-14T05:43:08;7.30;;;5.00;;
44850;SDS011;30583;48.714;9.386;2022-08-14T05:45:34;5.72;;;4.22;;
44850;SDS011;30583;48.714;9.386;2022-08-14T05:48:00;5.15;;;3.85;;
44850;SDS011;30583;48.714;9.386;2022-08-14T05:50:27;9.70;;;3.97;;
44850;SDS011;30583;48.714;9.386;2022-08-14T05:52:52;5.22;;;3.50;;
44850;SDS011;30583;48.714;9.386;2022-08-14T05:55:18;5.05;;;3.63;;
44850;SDS011;30583;48.714;9.386;2022-08-14T05:57:53;4.95;;;3.80;;
44850;SDS011;30583;48.714;9.386;2022-08-14T06:00:21;5.00;;;3.75;;
44850;SDS011;30583;48.714;9.386;2022-08-14T06:02:50;5.80;;;4.00;;
44850;SDS011;30583;48.714;9.386;2022-08-14T06:05:16;5.18;;;3.80;;
44850;SDS011;30583;48.714;9.386;2022-08-14T06:07:41;5.03;;;4.00;;
44850;SDS011;30583;48.714;9.386;2022-08-14T06:10:08;4.63;;;3.70;;
44850;SDS011;30583;48.714;9.386;2022-08-14T06:12:34;5.10;;;4.43;;
44850;SDS011;30583;48.714;9.386;2022-08-14T06:15:00;6.57;;;3.90;;
44850;SDS011;30583;48.714;9.386;2022-08-14T06:17:26;7.85;;;3.85;;
44850;SDS011;30583;48.714;9.386;2022-08-14T06:19:52;5.47;;;3.45;;
44850;SDS011;30583;48.714;9.386;2022-08-14T06:22:17;4.03;;;3.50;;
44850;SDS011;30583;48.714;9.386;2022-08-14T06:24:43;4.68;;;3.70;;
44850;SDS011;30583;48.714;9.386;2022-08-14T06:27:09;5.55;;;3.85;;
44850;SDS011;30583;48.714;9.386;2022-08-14T06:29:35;4.38;;;3.55;;
44850;SDS011;30583;48.714;9.386;2022-08-14T06:32:02;4.00;;;3.30;;
44850;SDS011;30583;48.714;9.386;2022-08-14T06:34:29;5.18;;;3.67;;
44850;SDS011;30583;48.714;9.386;2022-08-14T06:36:54;7.15;;;3.75;;
44850;SDS011;30583;48.714;9.386;2022-08-14T06:39:23;5.05;;;3.38;;
44850;SDS011;30583;48.714;9.386;2022-08-14T06:41:49;4.88;;;3.88;;
44850;SDS011;30583;48.714;9.386;2022-08-14T06:44:15;4.68;;;3.30;;
44850;SDS011;30583;48.714;9.386;2022-08-14T06:46:41;4.38;;;3.53;;
44850;SDS011;30583;48.714;9.386;2022-08-14T06:49:06;6.07;;;3.95;;
44850;SDS011;30583;48.714;9.386;2022-08-14T06:51:32;5.57;;;3.50;;
44850;SDS011;30583;48.714;9.386;2022-08-14T06:53:59;7.10;;;3.47;;
44850;SDS011;30583;48.714;9.386;2022-08-14T06:56:25;5.40;;;3.85;;
44850;SDS011;30583;48.714;9.386;2022-08-14T06:58:50;4.88;;;3.50;;
44850;SDS011;30583;48.714;9.386;2022-08-14T07:01:16;4.70;;;3.45;;
44850;SDS011;30583;48.714;9.386;2022-08-14T07:04:00;7.85;;;4.85;;
44850;SDS011;30583;48.714;9.386;2022-08-14T07:09:10;4.85;;;3.15;;
44850;SDS011;30583;48.714;9.386;2022-08-14T07:11:36;5.88;;;3.20;;
44850;SDS011;30583;48.714;9.386;2022-08-14T07:14:02;5.15;;;3.25;;
44850;SDS011;30583;48.714;9.386;2022-08-14T07:16:28;6.10;;;3.78;;
44850;SDS011;30583;48.714;9.386;2022-08-14T07:18:54;4.38;;;3.17;;
44850;SDS011;30583;48.714;9.386;2022-08-14T07:21:20;6.45;;;3.25;;
44850;SDS011;30583;48.714;9.386;2022-08-14T07:23:46;4.10;;;3.55;;
44850;SDS011;30583;48.714;9.386;2022-08-14T07:26:11;4.97;;;3.50;;
44850;SDS011;30583;48.714;9.386;2022-08-14T07:28:38;6.60;;;3.70;;
44850;SDS011;30583;48.714;9.386;2022-08-14T07:31:05;5.10;;;3.05;;
44850;SDS011;30583;48.714;9.386;2022-08-14T07:33:34;6.32;;;3.15;;
44850;SDS011;30583;48.714;9.386;2022-08-14T07:36:05;5.40;;;3.42;;
44850;SDS011;30583;48.714;9.386;2022-08-14T07:38:34;4.55;;;3.30;;
44850;SDS011;30583;48.714;9.386;2022-08-14T07:41:00;6.93;;;3.40;;
44850;SDS011;30583;48.714;9.386;2022-08-14T07:43:26;6.03;;;3.63;;
44850;SDS011;30583;48.714;9.386;2022-08-14T07:45:52;5.45;;;3.75;;
44850;SDS011;30583;48.714;9.386;2022-08-14T07:48:18;3.60;;;3.10;;
44850;SDS011;30583;48.714;9.386;2022-08-14T07:50:44;3.85;;;2.88;;
44850;SDS011;30583;48.714;9.386;2022-08-14T07:53:12;4.75;;;2.80;;
44850;SDS011;30583;48.714;9.386;2022-08-14T07:55:38;4.93;;;2.97;;
44850;SDS011;30583;48.714;9.386;2022-08-14T07:58:06;3.92;;;2.97;;
44850;SDS011;30583;48.714;9.386;2022-08-14T08:00:31;5.47;;;3.30;;
44850;SDS011;30583;48.714;9.386;2022-08-14T08:02:57;1.75;;;0.88;;
44850;SDS011;30583;48.714;9.386;2022-08-14T08:05:23;5.80;;;1.90;;
44850;SDS011;30583;48.714;9.386;2022-08-14T08:07:50;5.82;;;3.00;;
44850;SDS011;30583;48.714;9.386;2022-08-14T08:10:18;10.65;;;5.53;;
44850;SDS011;30583;48.714;9.386;2022-08-14T08:13:09;10.15;;;5.45;;
44850;SDS011;30583;48.714;9.386;2022-08-14T08:15:56;9.25;;;4.80;;
44850;SDS011;30583;48.714;9.386;2022-08-14T08:18:22;9.27;;;3.78;;
44850;SDS011;30583;48.714;9.386;2022-08-14T08:20:49;5.78;;;3.33;;
44850;SDS011;30583;48.714;9.386;2022-08-14T08:23:17;8.18;;;4.25;;
44850;SDS011;30583;48.714;9.386;2022-08-14T08:25:45;5.25;;;3.72;;
44850;SDS011;30583;48.714;9.386;2022-08-14T08:28:13;5.15;;;3.17;;
44850;SDS011;30583;48.714;9.386;2022-08-14T08:30:52;6.88;;;3.35;;
44850;SDS011;30583;48.714;9.386;2022-08-14T08:33:20;4.25;;;2.80;;
44850;SDS011;30583;48.714;9.386;2022-08-14T08:35:48;4.15;;;2.95;;
44850;SDS011;30583;48.714;9.386;2022-08-14T08:38:18;4.13;;;2.67;;
44850;SDS011;30583;48.714;9.386;2022-08-14T08:40:47;6.35;;;2.75;;
44850;SDS011;30583;48.714;9.386;2022-08-14T08:45:57;4.57;;;2.92;;
44850;SDS011;30583;48.714;9.386;2022-08-14T08:48:28;4.97;;;2.60;;
44850;SDS011;30583;48.714;9.386;2022-08-14T08:50:56;3.83;;;2.72;;
44850;SDS011;30583;48.714;9.386;2022-08-14T08:53:29;6.05;;;3.72;;
44850;SDS011;30583;48.714;9.386;2022-08-14T08:55:56;4.40;;;3.10;;
44850;SDS011;30583;48.714;9.386;2022-08-14T08:58:22;5.07;;;2.58;;
44850;SDS011;30583;48.714;9.386;2022-08-14T09:00:49;5.15;;;2.85;;
44850;SDS011;30583;48.714;9.386;2022-08-14T09:03:24;3.30;;;2.40;;
44850;SDS011;30583;48.714;9.386;2022-08-14T09:05:52;7.13;;;3.63;;
44850;SDS011;30583;48.714;9.386;2022-08-14T09:08:33;4.50;;;3.22;;
44850;SDS011;30583;48.714;9.386;2022-08-14T09:11:03;3.83;;;2.35;;
44850;SDS011;30583;48.714;9.386;2022-08-14T09:13:31;3.10;;;2.20;;
44850;SDS011;30583;48.714;9.386;2022-08-14T09:15:57;4.25;;;2.70;;
44850;SDS011;30583;48.714;9.386;2022-08-14T09:18:25;5.10;;;2.30;;
44850;SDS011;30583;48.714;9.386;2022-08-14T09:20:52;3.90;;;2.38;;
44850;SDS011;30583;48.714;9.386;2022-08-14T09:23:19;3.45;;;2.20;;
44850;SDS011;30583;48.714;9.386;2022-08-14T09:25:46;4.95;;;2.45;;
44850;SDS011;30583;48.714;9.386;2022-08-14T09:28:14;5.47;;;2.90;;
44850;SDS011;30583;48.714;9.386;2022-08-14T09:30:42;4.47;;;2.60;;
44850;SDS011;30583;48.714;9.386;2022-08-14T09:36:05;2.88;;;1.98;;
44850;SDS011;30583;48.714;9.386;2022-08-14T09:39:09;4.50;;;2.40;;
44850;SDS011;30583;48.714;9.386;2022-08-14T09:41:49;3.88;;;2.33;;
44850;SDS011;30583;48.714;9.386;2022-08-14T09:52:51;3.50;;;2.70;;
44850;SDS011;30583;48.714;9.386;2022-08-14T09:55:28;4.72;;;3.50;;
44850;SDS011;30583;48.714;9.386;2022-08-14T09:58:11;5.97;;;2.60;;
44850;SDS011;30583;48.714;9.386;2022-08-14T10:00:45;3.97;;;2.30;;
44850;SDS011;30583;48.714;9.386;2022-08-14T10:03:28;3.63;;;2.30;;
44850;SDS011;30583;48.714;9.386;2022-08-14T10:06:10;4.53;;;2.50;;
44850;SDS011;30583;48.714;9.386;2022-08-14T10:08:53;3.92;;;2.17;;
44850;SDS011;30583;48.714;9.386;2022-08-14T10:11:30;3.70;;;1.92;;
44850;SDS011;30583;48.714;9.386;2022-08-14T10:14:14;4.00;;;2.20;;
44850;SDS011;30583;48.714;9.386;2022-08-14T10:16:47;3.83;;;2.20;;
44850;SDS011;30583;48.714;9.386;2022-08-14T10:19:15;7.10;;;2.22;;
44850;SDS011;30583;48.714;9.386;2022-08-14T10:21:54;3.88;;;2.50;;
44850;SDS011;30583;48.714;9.386;2022-08-14T10:24:35;3.63;;;2.00;;
44850;SDS011;30583;48.714;9.386;2022-08-14T10:27:11;5.53;;;2.90;;
44850;SDS011;30583;48.714;9.386;2022-08-14T10:29:43;3.33;;;2.20;;
44850;SDS011;30583;48.714;9.386;2022-08-14T10:32:13;3.88;;;2.58;;
44850;SDS011;30583;48.714;9.386;2022-08-14T10:34:39;4.57;;;2.33;;
44850;SDS011;30583;48.714;9.386;2022-08-14T10:37:12;3.55;;;2.47;;
44850;SDS011;30583;48.714;9.386;2022-08-14T10:39:40;4.50;;;2.50;;
44850;SDS011;30583;48.714;9.386;2022-08-14T10:42:21;4.13;;;2.53;;
44850;SDS011;30583;48.714;9.386;2022-08-14T10:44:47;5.88;;;3.00;;
44850;SDS011;30583;48.714;9.386;2022-08-14T10:47:15;3.70;;;2.60;;
44850;SDS011;30583;48.714;9.386;2022-08-14T10:49:44;4.07;;;2.97;;
44850;SDS011;30583;48.714;9.386;2022-08-14T10:52:25;5.80;;;2.70;;
44850;SDS011;30583;48.714;9.386;2022-08-14T10:55:04;4.05;;;2.85;;
44850;SDS011;30583;48.714;9.386;2022-08-14T10:57:32;4.30;;;2.53;;
44850;SDS011;30583;48.714;9.386;2022-08-14T11:00:00;3.85;;;2.70;;
44850;SDS011;30583;48.714;9.386;2022-08-14T11:02:37;4.00;;;2.50;;
44850;SDS011;30583;48.714;9.386;2022-08-14T11:05:16;3.00;;;2.38;;
44850;SDS011;30583;48.714;9.386;2022-08-14T11:07:56;5.30;;;2.60;;
44850;SDS011;30583;48.714;9.386;2022-08-14T11:10:41;4.70;;;2.75;;
44850;SDS011;30583;48.714;9.386;2022-08-14T11:13:07;5.07;;;2.50;;
44850;SDS011;30583;48.714;9.386;2022-08-14T11:15:34;3.03;;;2.53;;
44850;SDS011;30583;48.714;9.386;2022-08-14T11:18:00;2.80;;;2.30;;
44850;SDS011;30583;48.714;9.386;2022-08-14T11:20:27;3.20;;;2.65;;
44850;SDS011;30583;48.714;9.386;2022-08-14T11:22:55;5.05;;;3.10;;
44850;SDS011;30583;48.714;9.386;2022-08-14T11:25:23;6.65;;;3.10;;
44850;SDS011;30583;48.714;9.386;2022-08-14T11:27:52;2.90;;;2.22;;
44850;SDS011;30583;48.714;9.386;2022-08-14T11:30:20;5.05;;;2.40;;
44850;SDS011;30583;48.714;9.386;2022-08-14T11:32:48;2.63;;;2.17;;
44850;SDS011;30583;48.714;9.386;2022-08-14T11:35:20;4.05;;;2.50;;
44850;SDS011;30583;48.714;9.386;2022-08-14T11:40:20;4.23;;;2.80;;
44850;SDS011;30583;48.714;9.386;2022-08-14T11:42:47;3.13;;;2.53;;
44850;SDS011;30583;48.714;9.386;2022-08-14T11:45:20;5.10;;;2.40;;
44850;SDS011;30583;48.714;9.386;2022-08-14T11:47:47;3.40;;;2.25;;
44850;SDS011;30583;48.714;9.386;2022-08-14T11:50:17;4.13;;;2.10;;
44850;SDS011;30583;48.714;9.386;2022-08-14T11:52:46;5.05;;;2.10;;
44850;SDS011;30583;48.714;9.386;2022-08-14T11:55:12;2.83;;;2.13;;
44850;SDS011;30583;48.714;9.386;2022-08-14T11:57:39;5.07;;;2.17;;
44850;SDS011;30583;48.714;9.386;2022-08-14T12:00:10;4.47;;;2.15;;
44850;SDS011;30583;48.714;9.386;2022-08-14T12:02:54;2.67;;;1.90;;
44850;SDS011;30583;48.714;9.386;2022-08-14T12:05:32;4.00;;;1.88;;
44850;SDS011;30583;48.714;9.386;2022-08-14T12:08:01;3.30;;;2.10;;
44850;SDS011;30583;48.714;9.386;2022-08-14T12:10:31;4.88;;;2.30;;
44850;SDS011;30583;48.714;9.386;2022-08-14T12:12:58;4.50;;;2.53;;
44850;SDS011;30583;48.714;9.386;2022-08-14T12:15:34;3.20;;;2.25;;
44850;SDS011;30583;48.714;9.386;2022-08-14T12:18:00;4.07;;;2.00;;
44850;SDS011;30583;48.714;9.386;2022-08-14T12:20:30;3.08;;;2.40;;
44850;SDS011;30583;48.714;9.386;2022-08-14T12:22:58;2.63;;;2.00;;
44850;SDS011;30583;48.714;9.386;2022-08-14T12:25:25;3.80;;;2.00;;
44850;SDS011;30583;48.714;9.386;2022-08-14T12:27:51;3.15;;;2.00;;
44850;SDS011;30583;48.714;9.386;2022-08-14T12:32:53;4.32;;;1.95;;
44850;SDS011;30583;48.714;9.386;2022-08-14T12:35:20;2.65;;;1.73;;
44850;SDS011;30583;48.714;9.386;2022-08-14T12:37:48;3.70;;;1.90;;
44850;SDS011;30583;48.714;9.386;2022-08-14T12:40:15;6.38;;;2.22;;
44850;SDS011;30583;48.714;9.386;2022-08-14T12:42:42;2.58;;;1.75;;
44850;SDS011;30583;48.714;9.386;2022-08-14T12:45:09;3.88;;;2.35;;
44850;SDS011;30583;48.714;9.386;2022-08-14T12:47:37;4.13;;;1.90;;
44850;SDS011;30583;48.714;9.386;2022-08-14T12:50:08;2.38;;;1.80;;
44850;SDS011;30583;48.714;9.386;2022-08-14T12:52:36;2.70;;;1.50;;
44850;SDS011;30583;48.714;9.386;2022-08-14T12:55:07;2.45;;;1.63;;
44850;SDS011;30583;48.714;9.386;2022-08-14T12:57:45;3.20;;;1.70;;
44850;SDS011;30583;48.714;9.386;2022-08-14T13:00:15;2.47;;;1.60;;
44850;SDS011;30583;48.714;9.386;2022-08-14T13:02:48;2.65;;;1.83;;
44850;SDS011;30583;48.714;9.386;2022-08-14T13:05:16;2.38;;;1.60;;
44850;SDS011;30583;48.714;9.386;2022-08-14T13:07:46;2.42;;;1.90;;
44850;SDS011;30583;48.714;9.386;2022-08-14T13:10:12;2.17;;;1.55;;
44850;SDS011;30583;48.714;9.386;2022-08-14T13:12:41;3.05;;;1.67;;
44850;SDS011;30583;48.714;9.386;2022-08-14T13:15:08;4.57;;;1.90;;
44850;SDS011;30583;48.714;9.386;2022-08-14T13:17:38;3.35;;;1.80;;
44850;SDS011;30583;48.714;9.386;2022-08-14T13:20:05;3.92;;;1.85;;
44850;SDS011;30583;48.714;9.386;2022-08-14T13:22:34;3.08;;;1.55;;
44850;SDS011;30583;48.714;9.386;2022-08-14T13:25:02;3.30;;;1.60;;
44850;SDS011;30583;48.714;9.386;2022-08-14T13:27:29;3.20;;;1.85;;
44850;SDS011;30583;48.714;9.386;2022-08-14T13:29:57;3.42;;;1.83;;
44850;SDS011;30583;48.714;9.386;2022-08-14T13:32:25;3.03;;;1.80;;
44850;SDS011;30583;48.714;9.386;2022-08-14T13:34:54;3.42;;;1.42;;
44850;SDS011;30583;48.714;9.386;2022-08-14T13:37:22;3.03;;;1.63;;
44850;SDS011;30583;48.714;9.386;2022-08-14T13:39:48;2.65;;;1.90;;
44850;SDS011;30583;48.714;9.386;2022-08-14T13:42:19;2.70;;;1.90;;
44850;SDS011;30583;48.714;9.386;2022-08-14T13:44:49;5.47;;;1.85;;
44850;SDS011;30583;48.714;9.386;2022-08-14T13:47:17;2.70;;;1.80;;
44850;SDS011;30583;48.714;9.386;2022-08-14T13:49:47;3.75;;;2.20;;
44850;SDS011;30583;48.714;9.386;2022-08-14T13:52:15;3.58;;;1.60;;
44850;SDS011;30583;48.714;9.386;2022-08-14T13:54:46;1.92;;;1.45;;
44850;SDS011;30583;48.714;9.386;2022-08-14T13:57:14;2.78;;;1.80;;
44850;SDS011;30583;48.714;9.386;2022-08-14T13:59:47;2.38;;;1.80;;
44850;SDS011;30583;48.714;9.386;2022-08-14T14:02:14;2.95;;;2.00;;
44850;SDS011;30583;48.714;9.386;2022-08-14T14:04:42;3.83;;;1.88;;
44850;SDS011;30583;48.714;9.386;2022-08-14T14:07:10;4.28;;;1.83;;
44850;SDS011;30583;48.714;9.386;2022-08-14T14:09:40;3.28;;;1.98;;
44850;SDS011;30583;48.714;9.386;2022-08-14T14:12:08;2.97;;;1.90;;
44850;SDS011;30583;48.714;9.386;2022-08-14T14:14:35;3.00;;;1.73;;
44850;SDS011;30583;48.714;9.386;2022-08-14T14:17:03;2.03;;;1.55;;
44850;SDS011;30583;48.714;9.386;2022-08-14T14:19:29;3.15;;;1.98;;
44850;SDS011;30583;48.714;9.386;2022-08-14T14:21:59;2.42;;;1.50;;
44850;SDS011;30583;48.714;9.386;2022-08-14T14:24:26;2.65;;;1.48;;
44850;SDS011;30583;48.714;9.386;2022-08-14T14:26:52;3.22;;;1.90;;
44850;SDS011;30583;48.714;9.386;2022-08-14T14:29:21;3.75;;;1.33;;
44850;SDS011;30583;48.714;9.386;2022-08-14T14:31:49;2.47;;;1.60;;
44850;SDS011;30583;48.714;9.386;2022-08-14T14:34:16;4.00;;;1.65;;
44850;SDS011;30583;48.714;9.386;2022-08-14T14:36:45;2.67;;;1.50;;
44850;SDS011;30583;48.714;9.386;2022-08-14T14:39:14;2.03;;;1.33;;
44850;SDS011;30583;48.714;9.386;2022-08-14T14:41:40;4.07;;;1.70;;
44850;SDS011;30583;48.714;9.386;2022-08-14T14:44:10;3.38;;;1.85;;
44850;SDS011;30583;48.714;9.386;2022-08-14T14:46:37;2.42;;;1.58;;
44850;SDS011;30583;48.714;9.386;2022-08-14T14:49:05;2.33;;;1.50;;
44850;SDS011;30583;48.714;9.386;2022-08-14T14:51:35;2.00;;;1.30;;
44850;SDS011;30583;48.714;9.386;2022-08-14T14:54:04;3.90;;;3.30;;
44850;SDS011;30583;48.714;9.386;2022-08-14T14:56:33;2.35;;;1.40;;
44850;SDS011;30583;48.714;9.386;2022-08-14T14:58:59;1.90;;;1.40;;
44850;SDS011;30583;48.714;9.386;2022-08-14T15:01:25;2.55;;;1.40;;
44850;SDS011;30583;48.714;9.386;2022-08-14T15:03:50;2.20;;;1.10;;
44850;SDS011;30583;48.714;9.386;2022-08-14T15:06:19;4.38;;;1.58;;
44850;SDS011;30583;48.714;9.386;2022-08-14T15:08:47;5.53;;;1.80;;
44850;SDS011;30583;48.714;9.386;2022-08-14T15:11:12;9.95;;;2.38;;
44850;SDS011;30583;48.714;9.386;2022-08-14T15:13:38;6.63;;;1.75;;
44850;SDS011;30583;48.714;9.386;2022-08-14T15:16:04;5.53;;;1.60;;
44850;SDS011;30583;48.714;9.386;2022-08-14T15:18:31;5.47;;;1.80;;
44850;SDS011;30583;48.714;9.386;2022-08-14T15:20:58;6.00;;;1.50;;